This is the latest recevied weather packets stored in our database for station/object KJ5JYX. If no packets are shown the sender has not sent any weather packets the latest 10 day(s).
| Time | Temp. | Humidity | Pressure | Rain* | Wind** | Luminosity | Snow |
|---|---|---|---|---|---|---|---|
| 1777413174 | 32.22° C | 69% | 1010.8 hPa | 0 mm | - | 235 W/m² | - |
| 1777412869 | 32.22° C | 68% | 1010.9 hPa | 0 mm | - | 258 W/m² | - |
| 1777412569 | 32.22° C | 69% | 1011.1 hPa | 0 mm | - | 287 W/m² | - |
| 1777412266 | 32.78° C | 67% | 1011.1 hPa | 0 mm | - | 289 W/m² | - |
| 1777411963 | 32.78° C | 65% | 1011 hPa | 0 mm | - | 202 W/m² | - |
| 1777411662 | 32.78° C | 64% | 1011.2 hPa | 0 mm | - | 214 W/m² | - |
| 1777411357 | 32.78° C | 64% | 1011.4 hPa | 0 mm | - | 276 W/m² | - |
| 1777411056 | 33.33° C | 63% | 1011.4 hPa | 0 mm | - | 401 W/m² | - |
| 1777410751 | 33.89° C | 62% | 1011.4 hPa | 0 mm | - | 469 W/m² | - |
| 1777410450 | 33.89° C | 64% | 1011.5 hPa | 0 mm | - | 425 W/m² | - |
| 1777410150 | 33.33° C | 62% | 1011.7 hPa | 0 mm | - | 514 W/m² | - |
| 1777409845 | 33.89° C | 62% | 1011.6 hPa | 0 mm | - | 430 W/m² | - |
| 1777409541 | 33.89° C | 62% | 1011.6 hPa | 0 mm | - | 424 W/m² | - |
| 1777409236 | 33.89° C | 59% | 1011.7 hPa | 0 mm | - | 539 W/m² | - |
| 1777408932 | 33.89° C | 60% | 1011.9 hPa | 0 mm | - | 569 W/m² | - |
| 1777408629 | 33.33° C | 63% | 1011.9 hPa | 0 mm | - | 517 W/m² | - |
| 1777408325 | 33.33° C | 63% | 1012 hPa | 0 mm | - | 523 W/m² | - |
| 1777408024 | 33.33° C | 61% | 1012 hPa | 0 mm | - | 601 W/m² | - |
| 1777407721 | 32.78° C | 62% | 1012.1 hPa | 0 mm | - | 478 W/m² | - |
| 1777407416 | 32.78° C | 66% | 1012 hPa | 0 mm | - | 545 W/m² | - |
| 1777407111 | 32.78° C | 63% | 1012.3 hPa | 0 mm | - | 556 W/m² | - |
| 1777406807 | 32.78° C | 63% | 1012.6 hPa | 0 mm | - | 565 W/m² | - |
| 1777406503 | 32.78° C | 64% | 1012.4 hPa | 0 mm | - | 325 W/m² | - |
| 1777406198 | 33.33° C | 64% | 1012.7 hPa | 0 mm | - | 652 W/m² | - |
| 1777405898 | 32.78° C | 64% | 1012.7 hPa | 0 mm | - | 665 W/m² | - |
* Rain latest hour (hover to see other rain measurements)
** Current wind speed in m/s (hover to see current wind gust speed)